Time,TemperatureF,DewpointF,PressureIn,WindDirection,WindDirectionDegrees,WindSpeedMPH,WindSpeedGustMPH,Humidity,HourlyPrecipIn,Conditions,Clouds,dailyrainin,SoftwareType,DateUTC
2013-01-26 00:00:00,15.4,-8.0,30.08,North,353,2.3,0.0,34,0.00,CLR,,0.00,WeatherDisplay:10.37,2013-01-26 05:00:00,
2013-01-26 00:01:00,15.4,-8.0,30.08,North,353,2.3,0.0,34,0.00,CLR,,0.00,WeatherDisplay:10.37,2013-01-26 05:01:00,
2013-01-26 00:02:00,15.4,-8.0,30.08,North,353,0.0,0.0,34,0.00,CLR,,0.00,WeatherDisplay:10.37,2013-01-26 05:02:00,
2013-01-26 00:07:00,15.3,-8.1,30.08,North,353,0.0,0.0,34,0.00,CLR,,0.00,WeatherDisplay:10.37,2013-01-26 05:07:00,
2013-01-26 00:12:00,15.1,-8.3,30.08,North,353,0.0,0.0,34,0.00,CLR,,0.00,WeatherDisplay:10.37,2013-01-26 05:12:00,
2013-01-26 00:17:00,14.9,-8.5,30.05,North,350,0.0,0.0,34,0.00,CLR,,0.00,WeatherDisplay:10.37,2013-01-26 05:17:00,
2013-01-26 00:22:00,14.9,-8.5,30.05,North,350,0.0,0.0,34,0.00,CLR,,0.00,WeatherDisplay:10.37,2013-01-26 05:22:00,
2013-01-26 00:27:00,14.9,-8.5,30.05,North,350,0.0,0.0,34,0.00,CLR,,0.00,WeatherDisplay:10.37,2013-01-26 05:27:00,
2013-01-26 00:32:00,14.9,-8.5,30.05,West,278,0.0,0.0,34,0.00,CLR,,0.00,WeatherDisplay:10.37,2013-01-26 05:32:00,
2013-01-26 00:37:00,14.7,-7.5,30.05,West,278,3.5,0.0,36,0.00,CLR,,0.00,WeatherDisplay:10.37,2013-01-26 05:37:00,
2013-01-26 00:42:00,14.5,-7.6,30.05,West,278,0.0,0.0,36,0.00,CLR,,0.00,WeatherDisplay:10.37,2013-01-26 05:42:00,
2013-01-26 00:47:00,14.5,-7.6,30.05,West,278,0.0,0.0,36,0.00,CLR,,0.00,WeatherDisplay:10.37,2013-01-26 05:47:00,
2013-01-26 00:52:00,14.4,-8.9,30.05,West,278,0.0,0.0,34,0.00,CLR,,0.00,WeatherDisplay:10.37,2013-01-26 05:52:00,
2013-01-26 00:57:00,14.4,-8.9,30.05,West,278,0.0,0.0,34,0.00,CLR,,0.00,WeatherDisplay:10.37,2013-01-26 05:57:00,
2013-01-26 01:02:00,14.4,-7.8,30.05,West,278,0.0,0.0,36,0.00,CLR,,0.00,WeatherDisplay:10.37,2013-01-26 06:02:00,
2013-01-26 01:07:00,14.2,-7.9,30.05,West,278,0.0,0.0,36,0.00,CLR,,0.00,WeatherDisplay:10.37,2013-01-26 06:07:00,
2013-01-26 01:12:00,13.8,-9.4,30.05,NNW,339,0.0,0.0,34,0.00,CLR,,0.00,WeatherDisplay:10.37,2013-01-26 06:12:00,
2013-01-26 01:17:00,13.8,-9.4,30.05,NNW,339,0.0,0.0,34,0.00,CLR,,0.00,WeatherDisplay:10.37,2013-01-26 06:17:00,
2013-01-26 01:22:00,13.8,-9.4,30.05,NNW,339,0.0,0.0,34,0.00,CLR,,0.00,WeatherDisplay:10.37,2013-01-26 06:22:00,
2013-01-26 01:27:00,13.8,-9.4,30.05,NNW,339,0.0,0.0,34,0.00,CLR,,0.00,WeatherDisplay:10.37,2013-01-26 06:27:00,
2013-01-26 01:32:00,13.8,-9.4,30.05,NNW,339,0.0,0.0,34,0.00,CLR,,0.00,WeatherDisplay:10.37,2013-01-26 06:32:00,
2013-01-26 01:37:00,13.6,-9.6,30.05,NNW,339,0.0,0.0,34,0.00,CLR,,0.00,WeatherDisplay:10.37,2013-01-26 06:37:00,
2013-01-26 01:42:00,13.8,-9.4,30.05,NNW,339,0.0,0.0,34,0.00,CLR,,0.00,WeatherDisplay:10.37,2013-01-26 06:42:00,
2013-01-26 01:47:00,13.8,-9.4,30.05,NNW,339,0.0,0.0,34,0.00,CLR,,0.00,WeatherDisplay:10.37,2013-01-26 06:47:00,
2013-01-26 01:52:00,13.6,-9.6,30.05,NNW,339,0.0,0.0,34,0.00,CLR,,0.00,WeatherDisplay:10.37,2013-01-26 06:52:00,
2013-01-26 01:57:00,13.5,-9.8,30.05,NNW,339,0.0,0.0,34,0.00,CLR,,0.00,WeatherDisplay:10.37,2013-01-26 06:57:00,
2013-01-26 02:02:00,13.1,-10.1,30.05,NNW,339,0.0,0.0,34,0.00,CLR,,0.00,WeatherDisplay:10.37,2013-01-26 07:02:00,
2013-01-26 02:07:00,12.9,-10.2,30.05,NNW,339,0.0,0.0,34,0.00,CLR,,0.00,WeatherDisplay:10.37,2013-01-26 07:07:00,
2013-01-26 02:12:00,12.4,-10.7,30.02,NNW,339,0.0,0.0,34,0.00,CLR,,0.00,WeatherDisplay:10.37,2013-01-26 07:12:00,
2013-01-26 02:17:00,11.8,-11.2,30.02,NNW,339,0.0,0.0,34,0.00,CLR,,0.00,WeatherDisplay:10.37,2013-01-26 07:17:00,
2013-01-26 02:22:00,11.8,-11.2,30.02,NNW,339,0.0,0.0,34,0.00,CLR,,0.00,WeatherDisplay:10.37,2013-01-26 07:22:00,
2013-01-26 02:27:00,11.8,-11.2,30.02,NNW,339,0.0,0.0,34,0.00,CLR,,0.00,WeatherDisplay:10.37,2013-01-26 07:27:00,
2013-01-26 02:32:00,11.8,-11.2,30.02,NNW,339,0.0,0.0,34,0.00,CLR,,0.00,WeatherDisplay:10.37,2013-01-26 07:32:00,
2013-01-26 02:37:00,11.1,-11.8,30.02,NNW,339,0.0,0.0,34,0.00,CLR,,0.00,WeatherDisplay:10.37,2013-01-26 07:37:00,
2013-01-26 02:42:00,10.9,-12.0,30.02,NNW,337,0.0,0.0,34,0.00,CLR,,0.00,WeatherDisplay:10.37,2013-01-26 07:42:00,
2013-01-26 02:47:00,10.9,-12.0,30.02,NNW,337,0.0,0.0,34,0.00,CLR,,0.00,WeatherDisplay:10.37,2013-01-26 07:47:00,
2013-01-26 02:52:00,10.8,-12.2,30.02,NNW,337,0.0,0.0,34,0.00,CLR,,0.00,WeatherDisplay:10.37,2013-01-26 07:52:00,
2013-01-26 02:57:00,10.4,-12.5,30.02,NNW,337,0.0,0.0,34,0.00,CLR,,0.00,WeatherDisplay:10.37,2013-01-26 07:57:00,
2013-01-26 03:02:00,10.4,-12.5,30.02,NNW,337,0.0,0.0,34,0.00,CLR,,0.00,WeatherDisplay:10.37,2013-01-26 08:02:00,
2013-01-26 03:07:00,10.2,-12.6,30.02,NNW,337,0.0,0.0,34,0.00,CLR,,0.00,WeatherDisplay:10.37,2013-01-26 08:07:00,
2013-01-26 03:12:00,10.2,-12.6,30.02,NNW,337,0.0,0.0,34,0.00,CLR,,0.00,WeatherDisplay:10.37,2013-01-26 08:12:00,
2013-01-26 03:17:00,10.2,-12.6,30.02,NNW,337,0.0,0.0,34,0.00,CLR,,0.00,WeatherDisplay:10.37,2013-01-26 08:17:00,
2013-01-26 03:22:00,10.2,-12.6,30.02,NNW,337,0.0,0.0,34,0.00,CLR,,0.00,WeatherDisplay:10.37,2013-01-26 08:22:00,
2013-01-26 03:27:00,10.0,-12.8,30.02,NNW,337,0.0,0.0,34,0.00,CLR,,0.00,WeatherDisplay:10.37,2013-01-26 08:27:00,
2013-01-26 03:32:00,9.9,-13.0,30.02,NNW,337,0.0,0.0,34,0.00,CLR,,0.00,WeatherDisplay:10.37,2013-01-26 08:32:00,
2013-01-26 03:37:00,9.7,-13.1,30.02,NNW,337,0.0,0.0,34,0.00,CLR,,0.00,WeatherDisplay:10.37,2013-01-26 08:37:00,
2013-01-26 03:42:00,9.7,-13.1,30.02,NNW,337,0.0,0.0,34,0.00,CLR,,0.00,WeatherDisplay:10.37,2013-01-26 08:42:00,
2013-01-26 03:47:00,9.7,-13.1,30.02,NNW,337,0.0,0.0,34,0.00,CLR,,0.00,WeatherDisplay:10.37,2013-01-26 08:47:00,
2013-01-26 03:52:00,9.5,-13.3,30.02,NNW,337,0.0,0.0,34,0.00,CLR,,0.00,WeatherDisplay:10.37,2013-01-26 08:52:00,
2013-01-26 03:57:00,9.5,-13.3,29.99,NNW,337,0.0,0.0,34,0.00,CLR,,0.00,WeatherDisplay:10.37,2013-01-26 08:57:00,
2013-01-26 04:02:00,9.3,-13.4,29.99,NNW,337,0.0,0.0,34,0.00,CLR,,0.00,WeatherDisplay:10.37,2013-01-26 09:02:00,
2013-01-26 04:07:00,9.3,-13.4,29.99,NNW,337,0.0,0.0,34,0.00,CLR,,0.00,WeatherDisplay:10.37,2013-01-26 09:07:00,
2013-01-26 04:12:00,9.1,-13.6,30.02,NNW,337,0.0,0.0,34,0.00,CLR,,0.00,WeatherDisplay:10.37,2013-01-26 09:12:00,
2013-01-26 04:17:00,9.0,-13.8,30.02,NNW,337,0.0,0.0,34,0.00,CLR,,0.00,WeatherDisplay:10.37,2013-01-26 09:17:00,
2013-01-26 04:22:00,9.0,-13.8,30.02,NNW,346,0.0,0.0,34,0.00,CLR,,0.00,WeatherDisplay:10.37,2013-01-26 09:22:00,
2013-01-26 04:27:00,9.0,-13.8,30.02,NNW,346,0.0,0.0,34,0.00,CLR,,0.00,WeatherDisplay:10.37,2013-01-26 09:27:00,
2013-01-26 04:32:00,9.0,-13.8,30.02,WNW,302,2.3,0.0,34,0.00,CLR,,0.00,WeatherDisplay:10.37,2013-01-26 09:32:00,
2013-01-26 04:37:00,9.3,-13.4,29.99,WNW,302,0.0,0.0,34,0.00,CLR,,0.00,WeatherDisplay:10.37,2013-01-26 09:37:00,
2013-01-26 04:42:00,9.3,-13.4,29.99,WNW,303,0.0,0.0,34,0.00,CLR,,0.00,WeatherDisplay:10.37,2013-01-26 09:42:00,
2013-01-26 04:47:00,9.5,-13.3,29.99,WNW,302,0.0,0.0,34,0.00,CLR,,0.00,WeatherDisplay:10.37,2013-01-26 09:47:00,
2013-01-26 04:52:00,9.3,-13.4,29.99,WNW,302,0.0,0.0,34,0.00,CLR,,0.00,WeatherDisplay:10.37,2013-01-26 09:52:00,
2013-01-26 04:57:00,9.1,-13.6,29.99,WNW,303,0.0,0.0,34,0.00,CLR,,0.00,WeatherDisplay:10.37,2013-01-26 09:57:00,
2013-01-26 05:02:00,8.8,-13.9,29.99,WNW,302,0.0,0.0,34,0.00,CLR,,0.00,WeatherDisplay:10.37,2013-01-26 10:02:00,
2013-01-26 05:07:00,8.6,-14.1,29.99,WNW,302,0.0,0.0,34,0.00,CLR,,0.00,WeatherDisplay:10.37,2013-01-26 10:07:00,
2013-01-26 05:12:00,8.8,-13.9,30.02,WNW,294,0.0,0.0,34,0.00,CLR,,0.00,WeatherDisplay:10.37,2013-01-26 10:12:00,
2013-01-26 05:17:00,8.8,-13.9,30.02,North,357,0.0,0.0,34,0.00,CLR,,0.00,WeatherDisplay:10.37,2013-01-26 10:17:00,
2013-01-26 05:22:00,9.1,-13.6,30.02,WNW,292,3.5,3.5,34,0.00,CLR,,0.00,WeatherDisplay:10.37,2013-01-26 10:22:00,
2013-01-26 05:27:00,9.3,-13.4,30.02,NW,315,3.5,0.0,34,0.00,CLR,,0.00,WeatherDisplay:10.37,2013-01-26 10:27:00,
2013-01-26 05:32:00,9.5,-13.3,30.02,NW,315,0.0,0.0,34,0.00,CLR,,0.00,WeatherDisplay:10.37,2013-01-26 10:32:00,
2013-01-26 05:37:00,9.5,-13.3,30.02,NW,315,0.0,0.0,34,0.00,CLR,,0.00,WeatherDisplay:10.37,2013-01-26 10:37:00,
2013-01-26 05:42:00,9.5,-13.3,30.02,South,176,2.3,0.0,34,0.00,CLR,,0.00,WeatherDisplay:10.37,2013-01-26 10:42:00,
2013-01-26 05:47:00,9.7,-13.1,30.02,NW,324,3.5,3.5,34,0.00,CLR,,0.00,WeatherDisplay:10.37,2013-01-26 10:47:00,
2013-01-26 05:52:00,9.7,-13.1,30.02,WNW,299,3.5,0.0,34,0.00,CLR,,0.00,WeatherDisplay:10.37,2013-01-26 10:52:00,
2013-01-26 05:57:00,9.7,-13.1,30.02,WSW,258,3.5,0.0,34,0.00,CLR,,0.00,WeatherDisplay:10.37,2013-01-26 10:57:00,
2013-01-26 06:02:00,9.7,-13.1,30.02,NW,310,3.5,3.5,34,0.00,CLR,,0.00,WeatherDisplay:10.37,2013-01-26 11:02:00,
2013-01-26 06:07:00,9.7,-13.1,30.02,NNW,330,2.3,0.0,34,0.00,CLR,,0.00,WeatherDisplay:10.37,2013-01-26 11:07:00,
2013-01-26 06:12:00,9.7,-13.1,30.02,North,5,2.3,0.0,34,0.00,CLR,,0.00,WeatherDisplay:10.37,2013-01-26 11:12:00,
2013-01-26 06:17:00,9.5,-13.3,30.02,WNW,292,4.6,0.0,34,0.00,CLR,,0.00,WeatherDisplay:10.37,2013-01-26 11:17:00,
2013-01-26 06:22:00,9.5,-13.3,30.02,WNW,295,3.5,0.0,34,0.00,CLR,,0.00,WeatherDisplay:10.37,2013-01-26 11:22:00,
2013-01-26 06:27:00,9.3,-13.4,30.02,North,357,3.5,3.5,34,0.00,CLR,,0.00,WeatherDisplay:10.37,2013-01-26 11:27:00,
2013-01-26 06:32:00,9.1,-13.6,30.02,North,353,2.3,0.0,34,0.00,CLR,,0.00,WeatherDisplay:10.37,2013-01-26 11:32:00,
2013-01-26 06:37:00,9.1,-13.6,30.02,WNW,290,3.5,3.5,34,0.00,CLR,,0.00,WeatherDisplay:10.37,2013-01-26 11:37:00,
2013-01-26 06:42:00,8.8,-13.9,30.02,NW,319,4.6,0.0,34,0.00,CLR,,0.00,WeatherDisplay:10.37,2013-01-26 11:42:00,
2013-01-26 06:47:00,9.0,-13.8,30.02,WNW,288,2.3,2.3,34,0.00,CLR,,0.00,WeatherDisplay:10.37,2013-01-26 11:47:00,
2013-01-26 06:52:00,9.0,-13.8,30.05,WNW,286,3.5,3.5,34,0.00,CLR,,0.00,WeatherDisplay:10.37,2013-01-26 11:52:00,
2013-01-26 06:57:00,8.8,-13.9,30.05,NNW,332,2.3,2.3,34,0.00,CLR,,0.00,WeatherDisplay:10.37,2013-01-26 11:57:00,
2013-01-26 07:02:00,8.8,-13.9,30.05,West,272,2.7,0.0,34,0.00,CLR,,0.00,WeatherDisplay:10.37,2013-01-26 12:02:00,
2013-01-26 07:07:00,8.8,-13.9,30.05,NW,320,0.0,0.0,34,0.00,CLR,,0.00,WeatherDisplay:10.37,2013-01-26 12:07:00,
2013-01-26 07:12:00,8.8,-13.9,30.05,NW,320,2.3,0.0,34,0.00,CLR,,0.00,WeatherDisplay:10.37,2013-01-26 12:12:00,
2013-01-26 07:17:00,8.8,-13.9,30.05,NW,320,2.3,0.0,34,0.00,CLR,,0.00,WeatherDisplay:10.37,2013-01-26 12:17:00,
2013-01-26 07:22:00,8.8,-13.9,30.05,North,6,4.6,4.6,34,0.00,CLR,,0.00,WeatherDisplay:10.37,2013-01-26 12:22:00,
2013-01-26 07:27:00,9.0,-13.8,30.05,NNW,331,2.3,0.0,34,0.00,CLR,,0.00,WeatherDisplay:10.37,2013-01-26 12:27:00,
2013-01-26 07:32:00,9.0,-13.8,30.05,NNW,345,2.3,0.0,34,0.00,CLR,,0.00,WeatherDisplay:10.37,2013-01-26 12:32:00,
2013-01-26 07:37:00,9.3,-13.4,30.05,NNW,338,5.8,5.8,34,0.00,CLR,,0.00,WeatherDisplay:10.37,2013-01-26 12:37:00,
2013-01-26 07:42:00,9.1,-13.6,30.05,NW,313,0.0,0.0,34,0.00,CLR,,0.00,WeatherDisplay:10.37,2013-01-26 12:42:00,
2013-01-26 07:47:00,9.5,-13.3,30.05,North,2,3.5,0.0,34,0.00,CLR,,0.00,WeatherDisplay:10.37,2013-01-26 12:47:00,
2013-01-26 07:52:00,9.5,-13.3,30.05,WNW,295,0.0,0.0,34,0.00,CLR,,0.00,WeatherDisplay:10.37,2013-01-26 12:52:00,
2013-01-26 07:57:00,9.5,-13.3,30.05,North,357,2.3,2.3,34,0.00,CLR,,0.00,WeatherDisplay:10.37,2013-01-26 12:57:00,
2013-01-26 08:02:00,9.5,-13.3,30.05,NE,36,8.1,8.1,34,0.00,CLR,,0.00,WeatherDisplay:10.37,2013-01-26 13:02:00,
2013-01-26 08:08:00,9.5,-13.3,30.05,NNW,334,3.5,3.5,34,0.00,CLR,,0.00,WeatherDisplay:10.37,2013-01-26 13:08:00,
2013-01-26 08:13:00,10.8,-12.2,30.05,NNW,336,3.5,3.5,34,0.00,CLR,,0.00,WeatherDisplay:10.37,2013-01-26 13:13:00,
2013-01-26 08:18:00,11.7,-11.4,30.05,NW,319,2.3,2.3,34,0.00,CLR,,0.00,WeatherDisplay:10.37,2013-01-26 13:18:00,
2013-01-26 08:23:00,12.2,-10.9,30.05,North,353,3.5,4.0,34,0.00,CLR,,0.00,WeatherDisplay:10.37,2013-01-26 13:23:00,
2013-01-26 08:28:00,13.5,-9.8,30.05,North,1,3.5,3.5,34,0.00,CLR,,0.00,WeatherDisplay:10.37,2013-01-26 13:28:00,
2013-01-26 08:33:00,13.6,-9.6,30.05,NW,309,5.8,5.8,34,0.00,CLR,,0.00,WeatherDisplay:10.37,2013-01-26 13:33:00,
2013-01-26 08:38:00,16.7,-7.5,30.05,North,357,4.6,4.6,33,0.00,CLR,,0.00,WeatherDisplay:10.37,2013-01-26 13:38:00,
2013-01-26 08:43:00,18.1,-6.2,30.05,NW,320,4.6,4.6,33,0.00,CLR,,0.00,WeatherDisplay:10.37,2013-01-26 13:43:00,
2013-01-26 08:48:00,19.2,-5.2,30.05,NW,315,2.3,0.0,33,0.00,CLR,,0.00,WeatherDisplay:10.37,2013-01-26 13:48:00,
2013-01-26 08:53:00,19.8,-5.4,30.05,WNW,288,3.5,4.0,32,0.00,CLR,,0.00,WeatherDisplay:10.37,2013-01-26 13:53:00,
2013-01-26 08:58:00,19.8,-5.4,30.05,NNW,330,3.5,3.6,32,0.00,CLR,,0.00,WeatherDisplay:10.37,2013-01-26 13:58:00,
2013-01-26 09:03:00,19.8,-5.4,30.05,NNW,341,3.5,3.6,32,0.00,CLR,,0.00,WeatherDisplay:10.37,2013-01-26 14:03:00,
2013-01-26 09:08:00,14.9,-8.5,30.05,NNW,336,3.5,3.5,34,0.00,CLR,,0.00,WeatherDisplay:10.37,2013-01-26 14:08:00,
2013-01-26 09:13:00,14.9,-8.5,30.05,West,268,3.5,3.5,34,0.00,CLR,,0.00,WeatherDisplay:10.37,2013-01-26 14:13:00,
2013-01-26 09:18:00,14.7,-8.6,30.08,NNW,344,4.6,4.6,34,0.00,CLR,,0.00,WeatherDisplay:10.37,2013-01-26 14:18:00,
2013-01-26 09:23:00,14.7,-8.6,30.08,NNW,332,3.5,0.0,34,0.00,CLR,,0.00,WeatherDisplay:10.37,2013-01-26 14:23:00,
2013-01-26 09:28:00,15.4,-8.0,30.08,NW,325,3.5,3.6,34,0.00,CLR,,0.00,WeatherDisplay:10.37,2013-01-26 14:28:00,
2013-01-26 09:33:00,16.5,-7.6,30.08,NW,313,3.5,0.0,33,0.00,CLR,,0.00,WeatherDisplay:10.37,2013-01-26 14:33:00,
2013-01-26 09:38:00,17.8,-6.5,30.08,NNW,334,3.5,3.5,33,0.00,CLR,,0.00,WeatherDisplay:10.37,2013-01-26 14:38:00,
2013-01-26 09:43:00,17.2,-7.0,30.05,North,11,2.3,0.0,33,0.00,CLR,,0.00,WeatherDisplay:10.37,2013-01-26 14:43:00,
2013-01-26 09:48:00,17.2,-7.0,30.05,West,275,3.5,4.0,33,0.00,CLR,,0.00,WeatherDisplay:10.37,2013-01-26 14:48:00,
2013-01-26 09:53:00,17.2,-7.0,30.05,NW,316,8.1,8.1,33,0.00,CLR,,0.00,WeatherDisplay:10.37,2013-01-26 14:53:00,
2013-01-26 09:58:00,16.2,-8.0,30.05,North,357,5.8,5.8,33,0.00,CLR,,0.00,WeatherDisplay:10.37,2013-01-26 14:58:00,
2013-01-26 10:03:00,16.0,-6.3,30.08,North,357,3.5,3.5,36,0.00,CLR,,0.00,WeatherDisplay:10.37,2013-01-26 15:03:00,
2013-01-26 10:08:00,16.0,-6.3,30.08,WNW,297,8.1,8.1,36,0.00,CLR,,0.00,WeatherDisplay:10.37,2013-01-26 15:08:00,
2013-01-26 10:13:00,16.0,-6.3,30.08,NW,308,5.8,5.8,36,0.00,CLR,,0.00,WeatherDisplay:10.37,2013-01-26 15:13:00,
2013-01-26 10:18:00,16.0,-6.3,30.08,NNW,348,2.3,2.7,36,0.00,CLR,,0.00,WeatherDisplay:10.37,2013-01-26 15:18:00,
2013-01-26 10:23:00,16.0,-6.3,30.08,NNW,337,8.1,8.1,36,0.00,CLR,,0.00,WeatherDisplay:10.37,2013-01-26 15:23:00,
2013-01-26 10:28:00,16.3,-7.8,30.08,North,353,5.8,5.8,33,0.00,CLR,,0.00,WeatherDisplay:10.37,2013-01-26 15:28:00,
2013-01-26 10:33:00,16.3,-7.8,30.05,North,5,8.1,8.1,33,0.00,CLR,,0.00,WeatherDisplay:10.37,2013-01-26 15:33:00,
2013-01-26 10:38:00,16.3,-7.8,30.05,WNW,299,3.5,4.0,33,0.00,CLR,,0.00,WeatherDisplay:10.37,2013-01-26 15:38:00,
2013-01-26 10:43:00,16.3,-7.8,30.05,NNE,15,3.5,3.6,33,0.00,CLR,,0.00,WeatherDisplay:10.37,2013-01-26 15:43:00,
2013-01-26 10:48:00,16.3,-7.8,30.05,NW,321,5.8,5.8,33,0.00,CLR,,0.00,WeatherDisplay:10.37,2013-01-26 15:48:00,
2013-01-26 10:53:00,17.1,-7.2,30.05,North,350,8.1,8.1,33,0.00,CLR,,0.00,WeatherDisplay:10.37,2013-01-26 15:53:00,
2013-01-26 10:58:00,17.4,-6.8,30.05,North,357,4.6,4.6,33,0.00,CLR,,0.00,WeatherDisplay:10.37,2013-01-26 15:58:00,
2013-01-26 11:03:00,17.4,-6.8,30.05,WNW,303,3.5,3.6,33,0.00,CLR,,0.00,WeatherDisplay:10.37,2013-01-26 16:03:00,
2013-01-26 11:08:00,17.8,-6.5,30.05,North,6,4.6,4.6,33,0.00,CLR,,0.00,WeatherDisplay:10.37,2013-01-26 16:08:00,
2013-01-26 11:13:00,18.1,-6.2,30.05,NW,312,5.8,5.8,33,0.00,CLR,,0.00,WeatherDisplay:10.37,2013-01-26 16:13:00,
2013-01-26 11:18:00,18.5,-5.9,30.05,NNW,338,3.5,3.6,33,0.00,CLR,,0.00,WeatherDisplay:10.37,2013-01-26 16:18:00,
2013-01-26 11:23:00,18.7,-5.7,30.05,NNE,18,6.9,6.9,33,0.00,CLR,,0.00,WeatherDisplay:10.37,2013-01-26 16:23:00,
2013-01-26 11:28:00,19.0,-5.4,30.05,NW,325,3.5,3.5,33,0.00,CLR,,0.00,WeatherDisplay:10.37,2013-01-26 16:28:00,
2013-01-26 11:33:00,19.9,-5.2,30.05,NE,55,3.5,3.5,32,0.00,CLR,,0.00,WeatherDisplay:10.37,2013-01-26 16:33:00,
2013-01-26 11:38:00,21.2,-4.1,30.05,West,278,3.5,3.5,32,0.00,CLR,,0.00,WeatherDisplay:10.37,2013-01-26 16:38:00,
2013-01-26 11:43:00,21.2,-4.1,30.05,North,6,3.5,3.6,32,0.00,CLR,,0.00,WeatherDisplay:10.37,2013-01-26 16:43:00,
2013-01-26 11:48:00,21.2,-4.1,30.05,North,3,2.3,0.0,32,0.00,CLR,,0.00,WeatherDisplay:10.37,2013-01-26 16:48:00,
2013-01-26 11:53:00,21.2,-4.1,30.05,NNW,332,5.8,5.8,32,0.00,CLR,,0.00,WeatherDisplay:10.37,2013-01-26 16:53:00,
2013-01-26 11:58:00,21.7,-3.6,30.05,West,266,3.5,3.5,32,0.00,CLR,,0.00,WeatherDisplay:10.37,2013-01-26 16:58:00,
2013-01-26 12:03:00,21.4,-4.0,30.05,NNW,343,3.5,4.5,32,0.00,CLR,,0.00,WeatherDisplay:10.37,2013-01-26 17:03:00,
2013-01-26 12:08:00,21.4,-4.0,30.02,NNE,18,3.5,3.5,32,0.00,CLR,,0.00,WeatherDisplay:10.37,2013-01-26 17:08:00,
2013-01-26 12:13:00,21.4,-4.0,30.02,North,6,5.8,5.8,32,0.00,CLR,,0.00,WeatherDisplay:10.37,2013-01-26 17:13:00,
2013-01-26 12:18:00,20.7,-4.6,30.02,North,2,3.5,3.5,32,0.00,CLR,,0.00,WeatherDisplay:10.37,2013-01-26 17:18:00,
2013-01-26 12:23:00,21.4,-4.0,30.02,NW,324,3.5,3.5,32,0.00,CLR,,0.00,WeatherDisplay:10.37,2013-01-26 17:23:00,
2013-01-26 12:28:00,22.1,-3.3,30.02,NNW,340,5.8,5.8,32,0.00,CLR,,0.00,WeatherDisplay:10.37,2013-01-26 17:28:00,
2013-01-26 12:33:00,22.5,-3.0,30.02,WNW,295,8.1,8.1,32,0.00,CLR,,0.00,WeatherDisplay:10.37,2013-01-26 17:33:00,
2013-01-26 12:38:00,23.4,-2.2,30.02,WSW,248,5.8,5.8,32,0.00,CLR,,0.00,WeatherDisplay:10.37,2013-01-26 17:38:00,
2013-01-26 12:43:00,22.8,-2.7,30.02,North,5,5.8,5.8,32,0.00,CLR,,0.00,WeatherDisplay:10.37,2013-01-26 17:43:00,
2013-01-26 12:48:00,22.8,-2.7,30.02,NW,326,4.6,4.6,32,0.00,CLR,,0.00,WeatherDisplay:10.37,2013-01-26 17:48:00,
2013-01-26 12:53:00,25.2,-1.3,30.02,West,259,8.1,8.1,31,0.00,CLR,,0.00,WeatherDisplay:10.37,2013-01-26 17:53:00,
2013-01-26 12:58:00,23.5,-2.1,30.02,NNW,341,8.1,8.1,32,0.00,CLR,,0.00,WeatherDisplay:10.37,2013-01-26 17:58:00,
2013-01-26 13:03:00,23.0,-2.5,30.02,WSW,238,8.0,8.0,32,0.00,CLR,,0.00,WeatherDisplay:10.37,2013-01-26 18:03:00,
2013-01-26 13:08:00,23.5,-2.1,30.02,WNW,290,5.8,5.8,32,0.00,CLR,,0.00,WeatherDisplay:10.37,2013-01-26 18:08:00,
2013-01-26 13:13:00,24.4,-1.3,30.02,NNW,333,8.1,8.1,32,0.00,CLR,,0.00,WeatherDisplay:10.37,2013-01-26 18:13:00,
2013-01-26 13:18:00,24.8,-0.9,30.02,North,357,4.0,4.0,32,0.00,CLR,,0.00,WeatherDisplay:10.37,2013-01-26 18:18:00,
2013-01-26 13:23:00,23.5,-2.1,30.02,NW,306,5.8,5.8,32,0.00,CLR,,0.00,WeatherDisplay:10.37,2013-01-26 18:23:00,
2013-01-26 13:28:00,23.0,-2.5,30.02,NNE,13,5.8,5.8,32,0.00,CLR,,0.00,WeatherDisplay:10.37,2013-01-26 18:28:00,
2013-01-26 13:33:00,24.1,-1.6,30.02,NW,310,5.8,5.8,32,0.00,CLR,,0.00,WeatherDisplay:10.37,2013-01-26 18:33:00,
2013-01-26 13:38:00,24.1,-1.6,30.02,NW,317,5.8,5.8,32,0.00,CLR,,0.00,WeatherDisplay:10.37,2013-01-26 18:38:00,
2013-01-26 13:43:00,21.4,-4.0,30.02,WNW,288,5.8,5.8,32,0.00,CLR,,0.00,WeatherDisplay:10.37,2013-01-26 18:43:00,
2013-01-26 13:48:00,21.9,-3.5,30.02,NNE,25,8.1,8.1,32,0.00,CLR,,0.00,WeatherDisplay:10.37,2013-01-26 18:48:00,
2013-01-26 13:53:00,21.7,-3.6,30.02,North,357,9.2,9.2,32,0.00,CLR,,0.00,WeatherDisplay:10.37,2013-01-26 18:53:00,
2013-01-26 13:58:00,21.6,-3.8,30.02,NW,314,8.1,8.1,32,0.00,CLR,,0.00,WeatherDisplay:10.37,2013-01-26 18:58:00,
2013-01-26 14:03:00,21.6,-3.8,30.02,NW,313,5.8,5.8,32,0.00,CLR,,0.00,WeatherDisplay:10.37,2013-01-26 19:03:00,
2013-01-26 14:08:00,22.1,-3.3,30.02,NNW,342,8.1,8.1,32,0.00,CLR,,0.00,WeatherDisplay:10.37,2013-01-26 19:08:00,
2013-01-26 14:13:00,21.6,-3.8,30.02,North,357,5.8,5.8,32,0.00,CLR,,0.00,WeatherDisplay:10.37,2013-01-26 19:13:00,
2013-01-26 14:18:00,21.6,-3.8,30.02,NNW,338,8.1,8.1,32,0.00,CLR,,0.00,WeatherDisplay:10.37,2013-01-26 19:18:00,
2013-01-26 14:23:00,21.6,-3.8,30.02,WNW,292,10.4,10.4,32,0.00,CLR,,0.00,WeatherDisplay:10.37,2013-01-26 19:23:00,
2013-01-26 14:28:00,21.2,-4.1,30.02,NW,305,5.8,5.8,32,0.00,CLR,,0.00,WeatherDisplay:10.37,2013-01-26 19:28:00,
2013-01-26 14:33:00,21.2,-4.1,30.02,NNE,18,3.5,3.5,32,0.00,CLR,,0.00,WeatherDisplay:10.37,2013-01-26 19:33:00,
2013-01-26 14:38:00,21.2,-4.1,30.05,WNW,283,3.5,3.6,32,0.00,CLR,,0.00,WeatherDisplay:10.37,2013-01-26 19:38:00,
2013-01-26 14:43:00,21.2,-4.1,30.05,NW,306,4.6,4.6,32,0.00,CLR,,0.00,WeatherDisplay:10.37,2013-01-26 19:43:00,
2013-01-26 14:48:00,21.0,-4.3,30.05,NW,321,8.1,8.1,32,0.00,CLR,,0.00,WeatherDisplay:10.37,2013-01-26 19:48:00,
2013-01-26 14:53:00,21.0,-4.3,30.05,North,353,3.5,3.5,32,0.00,CLR,,0.00,WeatherDisplay:10.37,2013-01-26 19:53:00,
2013-01-26 14:58:00,22.1,-3.3,30.05,West,263,3.5,5.8,32,0.00,CLR,,0.00,WeatherDisplay:10.37,2013-01-26 19:58:00,
2013-01-26 15:03:00,21.0,-4.3,30.05,NW,311,6.9,6.9,32,0.00,CLR,,0.00,WeatherDisplay:10.37,2013-01-26 20:03:00,
2013-01-26 15:08:00,21.9,-3.5,30.05,NNW,330,8.1,8.1,32,0.00,CLR,,0.00,WeatherDisplay:10.37,2013-01-26 20:08:00,
2013-01-26 15:13:00,21.2,-4.1,30.05,West,268,5.8,5.8,32,0.00,CLR,,0.00,WeatherDisplay:10.37,2013-01-26 20:13:00,
2013-01-26 15:18:00,20.7,-4.6,30.05,North,353,5.8,5.8,32,0.00,CLR,,0.00,WeatherDisplay:10.37,2013-01-26 20:18:00,
2013-01-26 15:23:00,20.3,-4.9,30.05,SW,232,4.6,5.4,32,0.00,CLR,,0.00,WeatherDisplay:10.37,2013-01-26 20:23:00,
2013-01-26 15:28:00,20.5,-4.8,30.05,West,266,8.1,8.1,32,0.00,CLR,,0.00,WeatherDisplay:10.37,2013-01-26 20:28:00,
2013-01-26 15:33:00,20.5,-4.8,30.05,WNW,295,11.5,11.5,32,0.00,CLR,,0.00,WeatherDisplay:10.37,2013-01-26 20:33:00,
2013-01-26 15:38:00,20.5,-4.8,30.05,NNW,341,8.1,8.1,32,0.00,CLR,,0.00,WeatherDisplay:10.37,2013-01-26 20:38:00,
2013-01-26 15:43:00,19.8,-5.4,30.05,North,353,8.1,8.1,32,0.00,CLR,,0.00,WeatherDisplay:10.37,2013-01-26 20:43:00,
2013-01-26 15:48:00,19.9,-5.2,30.08,WNW,299,5.8,5.8,32,0.00,CLR,,0.00,WeatherDisplay:10.37,2013-01-26 20:48:00,
2013-01-26 15:53:00,19.9,-5.2,30.08,North,9,11.5,11.5,32,0.00,CLR,,0.00,WeatherDisplay:10.37,2013-01-26 20:53:00,
2013-01-26 15:58:00,20.3,-4.9,30.08,NNW,331,8.1,8.1,32,0.00,CLR,,0.00,WeatherDisplay:10.37,2013-01-26 20:58:00,
2013-01-26 16:03:00,20.3,-4.9,30.08,North,353,5.8,6.3,32,0.00,CLR,,0.00,WeatherDisplay:10.37,2013-01-26 21:03:00,
2013-01-26 16:08:00,20.3,-4.9,30.08,WNW,298,8.1,8.1,32,0.00,CLR,,0.00,WeatherDisplay:10.37,2013-01-26 21:08:00,
2013-01-26 16:13:00,20.3,-4.9,30.08,WNW,293,8.1,8.1,32,0.00,CLR,,0.00,WeatherDisplay:10.37,2013-01-26 21:13:00,
2013-01-26 16:18:00,19.8,-5.4,30.08,WNW,282,4.6,4.6,32,0.00,CLR,,0.00,WeatherDisplay:10.37,2013-01-26 21:18:00,
2013-01-26 16:23:00,19.8,-5.4,30.08,North,6,5.8,5.8,32,0.00,CLR,,0.00,WeatherDisplay:10.37,2013-01-26 21:23:00,
2013-01-26 16:28:00,19.8,-5.4,30.08,NW,322,3.5,3.5,32,0.00,CLR,,0.00,WeatherDisplay:10.37,2013-01-26 21:28:00,
2013-01-26 16:33:00,19.8,-5.4,30.08,NNW,342,3.5,3.5,32,0.00,CLR,,0.00,WeatherDisplay:10.37,2013-01-26 21:33:00,
2013-01-26 16:38:00,19.0,-5.4,30.08,NNE,20,2.3,0.0,33,0.00,CLR,,0.00,WeatherDisplay:10.37,2013-01-26 21:38:00,
2013-01-26 16:43:00,18.9,-5.6,30.08,WNW,299,3.5,3.5,33,0.00,CLR,,0.00,WeatherDisplay:10.37,2013-01-26 21:43:00,
2013-01-26 16:48:00,18.9,-5.6,30.08,NW,309,4.6,4.6,33,0.00,CLR,,0.00,WeatherDisplay:10.37,2013-01-26 21:48:00,
2013-01-26 16:53:00,19.0,-5.4,30.08,NW,304,8.1,8.1,33,0.00,CLR,,0.00,WeatherDisplay:10.37,2013-01-26 21:53:00,
2013-01-26 16:58:00,19.0,-5.4,30.11,North,3,9.2,9.2,33,0.00,CLR,,0.00,WeatherDisplay:10.37,2013-01-26 21:58:00,
2013-01-26 17:03:00,19.0,-5.4,30.11,WNW,282,5.8,5.8,33,0.00,CLR,,0.00,WeatherDisplay:10.37,2013-01-26 22:03:00,
2013-01-26 17:08:00,18.7,-5.7,30.11,South,187,5.8,5.8,33,0.00,CLR,,0.00,WeatherDisplay:10.37,2013-01-26 22:08:00,
2013-01-26 17:13:00,18.7,-5.7,30.11,North,7,4.0,4.0,33,0.00,CLR,,0.00,WeatherDisplay:10.37,2013-01-26 22:13:00,
2013-01-26 17:18:00,18.3,-6.0,30.11,NW,325,5.8,5.8,33,0.00,CLR,,0.00,WeatherDisplay:10.37,2013-01-26 22:18:00,
2013-01-26 17:23:00,18.3,-6.0,30.11,WNW,284,3.5,3.5,33,0.00,CLR,,0.00,WeatherDisplay:10.37,2013-01-26 22:23:00,
2013-01-26 17:28:00,17.8,-6.5,30.11,WNW,288,3.5,3.5,33,0.00,CLR,,0.00,WeatherDisplay:10.37,2013-01-26 22:28:00,
2013-01-26 17:33:00,17.8,-6.5,30.11,SSW,208,5.8,0.0,33,0.00,CLR,,0.00,WeatherDisplay:10.37,2013-01-26 22:33:00,
2013-01-26 17:38:00,17.8,-6.5,30.11,WSW,251,5.8,5.8,33,0.00,CLR,,0.00,WeatherDisplay:10.37,2013-01-26 22:38:00,
2013-01-26 17:43:00,17.8,-6.5,30.11,WSW,256,6.9,6.9,33,0.00,CLR,,0.00,WeatherDisplay:10.37,2013-01-26 22:43:00,
2013-01-26 17:48:00,17.8,-6.5,30.11,NNW,331,8.1,8.1,33,0.00,CLR,,0.00,WeatherDisplay:10.37,2013-01-26 22:48:00,
2013-01-26 17:53:00,17.8,-6.5,30.11,NW,325,3.5,4.0,33,0.00,CLR,,0.00,WeatherDisplay:10.37,2013-01-26 22:53:00,
2013-01-26 17:58:00,17.4,-6.8,30.11,WNW,290,8.1,8.1,33,0.00,CLR,,0.00,WeatherDisplay:10.37,2013-01-26 22:58:00,
2013-01-26 18:03:00,17.6,-6.7,30.11,North,1,3.5,3.5,33,0.00,CLR,,0.00,WeatherDisplay:10.37,2013-01-26 23:03:00,
2013-01-26 18:08:00,17.6,-6.7,30.11,NNW,335,5.8,5.8,33,0.00,CLR,,0.00,WeatherDisplay:10.37,2013-01-26 23:08:00,
2013-01-26 18:13:00,17.6,-6.7,30.14,NW,325,2.3,2.7,33,0.00,CLR,,0.00,WeatherDisplay:10.37,2013-01-26 23:13:00,
2013-01-26 18:18:00,17.4,-6.8,30.14,NNW,339,3.5,3.6,33,0.00,CLR,,0.00,WeatherDisplay:10.37,2013-01-26 23:18:00,
2013-01-26 18:23:00,17.4,-6.8,30.14,NNE,16,8.3,8.3,33,0.00,CLR,,0.00,WeatherDisplay:10.37,2013-01-26 23:23:00,
2013-01-26 18:28:00,17.4,-6.8,30.14,North,0,5.8,5.8,33,0.00,CLR,,0.00,WeatherDisplay:10.37,2013-01-26 23:28:00,
2013-01-26 18:33:00,17.4,-6.8,30.14,NNW,346,10.4,10.4,33,0.00,CLR,,0.00,WeatherDisplay:10.37,2013-01-26 23:33:00,
2013-01-26 18:38:00,16.5,-7.6,30.14,West,273,10.4,10.4,33,0.00,CLR,,0.00,WeatherDisplay:10.37,2013-01-26 23:38:00,
2013-01-26 18:43:00,16.2,-6.2,30.14,NNW,335,5.8,5.8,36,0.00,CLR,,0.00,WeatherDisplay:10.37,2013-01-26 23:43:00,
2013-01-26 18:48:00,16.3,-7.8,30.14,NNW,331,5.8,5.8,33,0.00,CLR,,0.00,WeatherDisplay:10.37,2013-01-26 23:48:00,
2013-01-26 18:53:00,16.3,-7.8,30.14,NNE,23,3.5,6.7,33,0.00,CLR,,0.00,WeatherDisplay:10.37,2013-01-26 23:53:00,
2013-01-26 18:58:00,16.0,-8.1,30.14,NNW,329,11.5,11.5,33,0.00,CLR,,0.00,WeatherDisplay:10.37,2013-01-26 23:58:00,
2013-01-26 19:03:00,16.0,-8.1,30.14,NW,310,5.8,5.8,33,0.00,CLR,,0.00,WeatherDisplay:10.37,2013-01-27 00:03:00,
2013-01-26 19:08:00,16.0,-8.1,30.14,WNW,300,5.8,5.8,33,0.00,CLR,,0.00,WeatherDisplay:10.37,2013-01-27 00:08:00,
2013-01-26 19:13:00,16.0,-8.1,30.14,NW,326,11.5,11.5,33,0.00,CLR,,0.00,WeatherDisplay:10.37,2013-01-27 00:13:00,
2013-01-26 19:18:00,15.8,-7.7,30.14,NW,320,5.8,5.8,34,0.00,CLR,,0.00,WeatherDisplay:10.37,2013-01-27 00:18:00,
2013-01-26 19:23:00,15.6,-7.8,30.17,North,4,5.8,5.8,34,0.00,CLR,,0.00,WeatherDisplay:10.37,2013-01-27 00:23:00,
2013-01-26 19:28:00,15.4,-8.0,30.17,North,357,9.2,9.2,34,0.00,CLR,,0.00,WeatherDisplay:10.37,2013-01-27 00:28:00,
2013-01-26 19:33:00,15.3,-8.1,30.17,WNW,299,9.2,9.2,34,0.00,CLR,,0.00,WeatherDisplay:10.37,2013-01-27 00:33:00,
2013-01-26 19:38:00,14.9,-8.5,30.17,NW,320,5.8,5.8,34,0.00,CLR,,0.00,WeatherDisplay:10.37,2013-01-27 00:38:00,
2013-01-26 19:43:00,14.7,-8.6,30.17,NNW,335,2.3,2.7,34,0.00,CLR,,0.00,WeatherDisplay:10.37,2013-01-27 00:43:00,
2013-01-26 19:48:00,14.5,-8.8,30.17,NW,319,6.9,6.9,34,0.00,CLR,,0.00,WeatherDisplay:10.37,2013-01-27 00:48:00,
2013-01-26 19:53:00,14.2,-9.1,30.17,WNW,298,5.8,5.8,34,0.00,CLR,,0.00,WeatherDisplay:10.37,2013-01-27 00:53:00,
2013-01-26 19:58:00,14.4,-8.9,30.17,North,357,5.8,5.8,34,0.00,CLR,,0.00,WeatherDisplay:10.37,2013-01-27 00:58:00,
2013-01-26 20:03:00,14.2,-9.1,30.17,NW,312,5.8,5.8,34,0.00,CLR,,0.00,WeatherDisplay:10.37,2013-01-27 01:03:00,
2013-01-26 20:08:00,14.2,-9.1,30.17,WNW,294,3.5,4.0,34,0.00,CLR,,0.00,WeatherDisplay:10.37,2013-01-27 01:08:00,
2013-01-26 20:13:00,14.2,-9.1,30.17,North,8,5.8,5.8,34,0.00,CLR,,0.00,WeatherDisplay:10.37,2013-01-27 01:13:00,
2013-01-26 20:18:00,13.8,-9.4,30.17,West,265,8.1,8.1,34,0.00,CLR,,0.00,WeatherDisplay:10.37,2013-01-27 01:18:00,
2013-01-26 20:23:00,13.6,-9.6,30.17,WNW,294,5.8,5.8,34,0.00,CLR,,0.00,WeatherDisplay:10.37,2013-01-27 01:23:00,
2013-01-26 20:28:00,13.6,-9.6,30.17,North,8,5.8,5.8,34,0.00,CLR,,0.00,WeatherDisplay:10.37,2013-01-27 01:28:00,
2013-01-26 20:33:00,13.5,-9.8,30.17,NW,321,3.5,4.0,34,0.00,CLR,,0.00,WeatherDisplay:10.37,2013-01-27 01:33:00,
2013-01-26 20:38:00,13.3,-9.9,30.17,NW,318,2.3,4.0,34,0.00,CLR,,0.00,WeatherDisplay:10.37,2013-01-27 01:38:00,
2013-01-26 20:43:00,13.6,-9.6,30.17,NNW,346,5.8,5.8,34,0.00,CLR,,0.00,WeatherDisplay:10.37,2013-01-27 01:43:00,
2013-01-26 20:48:00,13.8,-9.4,30.17,NW,319,5.8,5.8,34,0.00,CLR,,0.00,WeatherDisplay:10.37,2013-01-27 01:48:00,
2013-01-26 20:53:00,13.6,-9.6,30.17,NW,318,3.5,3.5,34,0.00,CLR,,0.00,WeatherDisplay:10.37,2013-01-27 01:53:00,
2013-01-26 20:58:00,13.3,-9.9,30.17,West,278,5.8,5.8,34,0.00,CLR,,0.00,WeatherDisplay:10.37,2013-01-27 01:58:00,
2013-01-26 21:03:00,12.7,-10.4,30.17,NW,310,0.0,0.0,34,0.00,CLR,,0.00,WeatherDisplay:10.37,2013-01-27 02:03:00,
2013-01-26 21:08:00,12.6,-10.6,30.17,NW,304,5.8,5.8,34,0.00,CLR,,0.00,WeatherDisplay:10.37,2013-01-27 02:08:00,
2013-01-26 21:13:00,12.7,-10.4,30.17,WNW,285,5.8,5.8,34,0.00,CLR,,0.00,WeatherDisplay:10.37,2013-01-27 02:13:00,
2013-01-26 21:18:00,13.3,-9.9,30.17,North,1,5.8,5.8,34,0.00,CLR,,0.00,WeatherDisplay:10.37,2013-01-27 02:18:00,
2013-01-26 21:23:00,13.3,-9.9,30.17,North,357,10.4,10.4,34,0.00,CLR,,0.00,WeatherDisplay:10.37,2013-01-27 02:23:00,
2013-01-26 21:28:00,13.1,-10.1,30.17,North,357,11.5,11.5,34,0.00,CLR,,0.00,WeatherDisplay:10.37,2013-01-27 02:28:00,
2013-01-26 21:33:00,12.9,-10.2,30.17,North,0,5.8,5.8,34,0.00,CLR,,0.00,WeatherDisplay:10.37,2013-01-27 02:33:00,
2013-01-26 21:38:00,13.3,-9.9,30.17,WNW,297,5.8,5.8,34,0.00,CLR,,0.00,WeatherDisplay:10.37,2013-01-27 02:38:00,
2013-01-26 21:43:00,13.1,-10.1,30.17,NW,316,4.6,4.6,34,0.00,CLR,,0.00,WeatherDisplay:10.37,2013-01-27 02:43:00,
2013-01-26 21:48:00,12.7,-10.4,30.17,North,7,3.5,3.5,34,0.00,CLR,,0.00,WeatherDisplay:10.37,2013-01-27 02:48:00,
2013-01-26 21:53:00,12.6,-10.6,30.17,WNW,295,6.9,6.9,34,0.00,CLR,,0.00,WeatherDisplay:10.37,2013-01-27 02:53:00,
2013-01-26 21:58:00,12.7,-10.4,30.19,West,275,2.3,2.7,34,0.00,CLR,,0.00,WeatherDisplay:10.37,2013-01-27 02:58:00,
2013-01-26 22:03:00,12.9,-10.2,30.19,WNW,291,3.5,3.5,34,0.00,CLR,,0.00,WeatherDisplay:10.37,2013-01-27 03:03:00,
2013-01-26 22:08:00,12.7,-10.4,30.19,NW,306,5.8,5.8,34,0.00,CLR,,0.00,WeatherDisplay:10.37,2013-01-27 03:08:00,
2013-01-26 22:13:00,12.6,-10.6,30.19,SW,219,6.3,6.3,34,0.00,CLR,,0.00,WeatherDisplay:10.37,2013-01-27 03:13:00,
2013-01-26 22:18:00,12.7,-10.4,30.19,NNW,338,5.8,5.8,34,0.00,CLR,,0.00,WeatherDisplay:10.37,2013-01-27 03:18:00,
2013-01-26 22:23:00,13.3,-9.9,30.19,WSW,258,2.3,4.0,34,0.00,CLR,,0.00,WeatherDisplay:10.37,2013-01-27 03:23:00,
2013-01-26 22:28:00,13.3,-9.9,30.19,NW,304,9.2,9.2,34,0.00,CLR,,0.00,WeatherDisplay:10.37,2013-01-27 03:28:00,
2013-01-26 22:33:00,13.3,-9.9,30.19,NW,312,8.1,8.1,34,0.00,CLR,,0.00,WeatherDisplay:10.37,2013-01-27 03:33:00,
2013-01-26 22:38:00,13.3,-9.9,30.19,NNE,13,3.6,3.6,34,0.00,CLR,,0.00,WeatherDisplay:10.37,2013-01-27 03:38:00,
2013-01-26 22:43:00,13.1,-10.1,30.19,NW,325,9.2,9.2,34,0.00,CLR,,0.00,WeatherDisplay:10.37,2013-01-27 03:43:00,
2013-01-26 22:48:00,13.1,-10.1,30.19,NW,315,5.8,5.8,34,0.00,CLR,,0.00,WeatherDisplay:10.37,2013-01-27 03:48:00,
2013-01-26 22:53:00,13.1,-10.1,30.19,NW,315,3.5,3.5,34,0.00,CLR,,0.00,WeatherDisplay:10.37,2013-01-27 03:53:00,
2013-01-26 22:58:00,12.9,-10.2,30.19,NNW,344,6.9,6.9,34,0.00,CLR,,0.00,WeatherDisplay:10.37,2013-01-27 03:58:00,
2013-01-26 23:03:00,12.9,-10.2,30.19,NE,55,5.8,5.8,34,0.00,CLR,,0.00,WeatherDisplay:10.37,2013-01-27 04:03:00,
2013-01-26 23:08:00,13.3,-9.9,30.19,WNW,293,10.4,10.4,34,0.00,CLR,,0.00,WeatherDisplay:10.37,2013-01-27 04:08:00,
2013-01-26 23:13:00,13.3,-9.9,30.19,WNW,282,10.4,10.4,34,0.00,CLR,,0.00,WeatherDisplay:10.37,2013-01-27 04:13:00,
2013-01-26 23:18:00,13.5,-9.8,30.19,NW,326,3.5,3.6,34,0.00,CLR,,0.00,WeatherDisplay:10.37,2013-01-27 04:18:00,
2013-01-26 23:23:00,13.1,-10.1,30.19,West,276,5.8,5.8,34,0.00,CLR,,0.00,WeatherDisplay:10.37,2013-01-27 04:23:00,
2013-01-26 23:28:00,12.9,-10.2,30.19,NNW,336,3.5,4.9,34,0.00,CLR,,0.00,WeatherDisplay:10.37,2013-01-27 04:28:00,
2013-01-26 23:33:00,12.9,-10.2,30.19,NNW,331,8.1,8.1,34,0.00,CLR,,0.00,WeatherDisplay:10.37,2013-01-27 04:33:00,
2013-01-26 23:38:00,12.9,-10.2,30.22,NE,55,5.8,5.8,34,0.00,CLR,,0.00,WeatherDisplay:10.37,2013-01-27 04:38:00,
2013-01-26 23:43:00,12.9,-10.2,30.22,WSW,250,5.8,5.8,34,0.00,CLR,,0.00,WeatherDisplay:10.37,2013-01-27 04:43:00,
2013-01-26 23:48:00,12.9,-10.2,30.22,North,353,4.6,4.6,34,0.00,CLR,,0.00,WeatherDisplay:10.37,2013-01-27 04:48:00,
2013-01-26 23:53:00,12.9,-10.2,30.22,WNW,290,9.2,9.2,34,0.00,CLR,,0.00,WeatherDisplay:10.37,2013-01-27 04:53:00,
2013-01-26 23:58:00,12.9,-10.2,30.22,WNW,295,5.8,5.8,34,0.00,CLR,,0.00,WeatherDisplay:10.37,2013-01-27 04:58:00,